Time;durP1;ratioP1;P1;durP2;ratioP2;P2;SDS_P1;SDS_P2;PMS_P1;PMS_P2;Temp;Humidity;BMP_temperature;BMP_pressure;BME280_temperature;BME280_humidity;BME280_pressure;Samples;Min_cycle;Max_cycle;Signal;HPM_P1;HPM_P2
2022/01/13 00:00:32;;;;;;;84.90;36.20;;;;;;;-3.68;77.37;100155.02;106259;1276;22565;-86
2022/01/13 00:03:12;;;;;;;90.10;36.50;;;;;;;-3.63;77.36;100154.27;106313;1277;137696;-85
2022/01/13 00:05:39;;;;;;;85.80;35.50;;;;;;;-3.61;77.35;100150.07;106345;1277;22548;-86
2022/01/13 00:08:05;;;;;;;85.30;34.90;;;;;;;-3.60;77.11;100144.55;106134;1278;138272;-86
2022/01/13 00:10:32;;;;;;;84.50;34.30;;;;;;;-3.61;77.10;100140.86;106173;1278;22594;-85
2022/01/13 00:13:10;;;;;;;79.10;34.10;;;;;;;-3.60;77.13;100143.11;106149;1280;138987;-86
2022/01/13 00:18:11;;;;;;;76.90;32.70;;;;;;;-3.55;76.72;100140.05;106112;1279;23210;-85
2022/01/13 00:21:14;;;;;;;74.90;30.00;;;;;;;-3.52;77.03;100139.52;106298;1277;138459;-85
2022/01/13 00:23:41;;;;;;;71.00;29.70;;;;;;;-3.52;77.11;100136.80;106576;1277;24355;-85
2022/01/13 00:26:16;;;;;;;71.20;30.20;;;;;;;-3.51;77.19;100128.23;106160;1278;138421;-87
2022/01/13 00:28:45;;;;;;;72.80;30.80;;;;;;;-3.51;77.31;100131.95;106155;1278;25498;-87
2022/01/13 00:31:11;;;;;;;68.50;28.80;;;;;;;-3.51;76.79;100135.17;106239;1277;138234;-87
2022/01/13 00:33:44;;;;;;;73.90;28.50;;;;;;;-3.52;77.20;100128.61;106346;1280;23317;-85
2022/01/13 00:36:10;;;;;;;68.40;29.00;;;;;;;-3.52;77.57;100131.82;106273;1277;22569;-86
2022/01/13 00:38:36;;;;;;;58.70;27.80;;;;;;;-3.50;77.72;100136.67;106184;1278;138770;-85
2022/01/13 00:41:03;;;;;;;64.50;28.50;;;;;;;-3.47;77.46;100139.29;108158;1277;23580;-85
2022/01/13 00:43:32;;;;;;;64.20;29.00;;;;;;;-3.44;77.46;100141.59;108662;1277;138290;-85
2022/01/13 00:45:58;;;;;;;64.00;27.60;;;;;;;-3.41;77.65;100137.95;106154;1278;22608;-85
2022/01/13 00:48:27;;;;;;;65.40;27.60;;;;;;;-3.36;77.66;100136.17;106271;1278;23975;-85
2022/01/13 00:50:54;;;;;;;64.10;27.10;;;;;;;-3.33;77.91;100132.21;106158;1277;137960;-85
2022/01/13 00:53:23;;;;;;;63.10;27.70;;;;;;;-3.30;77.82;100127.20;106077;1278;22584;-85
2022/01/13 00:56:04;;;;;;;69.70;28.80;;;;;;;-3.28;77.81;100136.48;105983;1278;138218;-84
2022/01/13 00:58:34;;;;;;;62.50;28.00;;;;;;;-3.28;77.24;100145.33;106450;1277;24079;-85
2022/01/13 01:01:03;;;;;;;62.50;26.90;;;;;;;-3.26;78.10;100150.36;106176;1277;138424;-85
2022/01/13 01:03:29;;;;;;;62.70;27.60;;;;;;;-3.23;78.25;100156.69;106516;1277;22569;-85
2022/01/13 01:05:56;;;;;;;61.70;27.60;;;;;;;-3.21;77.89;100156.33;106284;1277;25364;-85
2022/01/13 01:08:43;;;;;;;68.20;27.50;;;;;;;-3.17;78.27;100156.45;106123;1277;138064;-85
2022/01/13 01:11:09;;;;;;;67.70;27.80;;;;;;;-3.16;78.56;100161.88;106354;1277;22623;-85
2022/01/13 01:13:38;;;;;;;68.20;28.40;;;;;;;-3.15;78.05;100165.67;106258;1277;138138;-85
2022/01/13 01:16:09;;;;;;;65.50;28.60;;;;;;;-3.14;78.44;100164.38;106508;1277;22579;-85
2022/01/13 01:18:50;;;;;;;69.80;27.10;;;;;;;-3.11;78.69;100164.48;106289;1278;22547;-84
2022/01/13 01:31:35;;;;;;;62.60;26.90;;;;;;;-3.11;79.82;100167.66;106236;1277;138032;-85
2022/01/13 01:36:48;;;;;;;64.80;24.80;;;;;;;-3.11;80.60;100171.75;106334;1278;22594;-86
2022/01/13 01:39:15;;;;;;;64.30;26.10;;;;;;;-3.10;80.58;100172.73;106314;1277;138325;-85
2022/01/13 01:41:47;;;;;;;64.20;27.60;;;;;;;-3.08;81.25;100179.17;106660;1277;22552;-84
2022/01/13 01:44:33;;;;;;;59.90;24.60;;;;;;;-3.08;81.51;100171.19;106105;1277;138085;-84
2022/01/13 01:47:00;;;;;;;68.40;28.70;;;;;;;-3.09;81.59;100163.23;106365;1277;22559;-85
2022/01/13 01:49:28;;;;;;;68.30;29.40;;;;;;;-3.09;81.90;100153.30;106241;1277;139392;-85
2022/01/13 01:51:57;;;;;;;74.00;30.10;;;;;;;-3.08;82.32;100154.11;106074;1281;25431;-86
2022/01/13 01:54:24;;;;;;;68.80;28.00;;;;;;;-3.06;82.94;100153.27;106353;1277;22573;-85
2022/01/13 01:56:50;;;;;;;74.40;30.50;;;;;;;-3.04;83.01;100151.06;106234;1278;138232;-86
2022/01/13 01:59:20;;;;;;;64.70;27.90;;;;;;;-3.03;83.19;100149.87;106314;1277;24244;-85
2022/01/13 02:01:48;;;;;;;71.20;30.40;;;;;;;-3.03;83.63;100157.19;106031;1278;137891;-85
2022/01/13 02:04:15;;;;;;;81.20;31.50;;;;;;;-3.04;84.32;100156.17;106311;1278;23952;-84
2022/01/13 02:06:44;;;;;;;71.00;32.50;;;;;;;-3.02;84.61;100150.89;106334;1278;22553;-84
2022/01/13 02:09:16;;;;;;;73.10;30.80;;;;;;;-3.01;84.95;100145.30;106388;1277;138953;-85
2022/01/13 02:11:50;;;;;;;76.10;31.80;;;;;;;-3.00;85.14;100133.33;106436;1277;22853;-85
2022/01/13 02:16:51;;;;;;;83.60;36.50;;;;;;;-3.00;85.44;100138.95;106326;1277;24226;-85
2022/01/13 02:19:19;;;;;;;82.30;36.00;;;;;;;-2.98;85.39;100151.63;106090;1278;138822;-85
2022/01/13 02:21:48;;;;;;;82.70;33.30;;;;;;;-2.96;85.69;100180.40;106327;1277;22594;-85
2022/01/13 02:24:14;;;;;;;82.40;33.20;;;;;;;-2.94;85.89;100184.74;106401;1278;22559;-85
2022/01/13 02:26:40;;;;;;;72.70;31.00;;;;;;;-2.93;86.33;100163.98;106092;1277;137982;-85
2022/01/13 02:29:09;;;;;;;74.50;33.10;;;;;;;-2.93;86.65;100156.02;106269;1277;24065;-84
2022/01/13 02:31:36;;;;;;;88.40;34.60;;;;;;;-2.94;86.63;100148.81;106243;1278;139122;-85
2022/01/13 02:34:03;;;;;;;92.20;37.00;;;;;;;-2.94;86.57;100137.05;106476;1278;22650;-85
2022/01/13 02:36:32;;;;;;;76.80;31.90;;;;;;;-2.92;86.79;100122.05;106427;1278;22581;-84
2022/01/13 02:39:00;;;;;;;71.90;30.10;;;;;;;-2.91;87.03;100113.21;106587;1277;138543;-87
2022/01/13 02:41:28;;;;;;;66.40;28.50;;;;;;;-2.90;87.34;100113.83;106317;1277;24341;-86
2022/01/13 02:43:58;;;;;;;75.30;31.90;;;;;;;-2.91;87.39;100101.32;106053;1278;138123;-86
2022/01/13 02:49:01;;;;;;;83.80;35.20;;;;;;;-2.93;87.66;100087.93;106107;1278;139209;-85
2022/01/13 02:51:28;;;;;;;77.90;33.90;;;;;;;-2.91;87.61;100083.56;106065;1281;22551;-85
2022/01/13 02:54:09;;;;;;;78.80;32.50;;;;;;;-2.89;88.07;100091.58;106100;1278;24221;-85
2022/01/13 02:56:37;;;;;;;79.20;30.80;;;;;;;-2.88;88.16;100090.64;106129;1277;138059;-85
2022/01/13 02:59:05;;;;;;;86.00;36.30;;;;;;;-2.87;88.47;100096.77;106124;1280;22621;-87
2022/01/13 03:01:32;;;;;;;78.40;32.40;;;;;;;-2.84;88.42;100103.30;106109;1277;138822;-85
2022/01/13 03:04:03;;;;;;;74.60;32.60;;;;;;;-2.80;88.64;100108.99;106127;1281;25519;-85
2022/01/13 03:06:35;;;;;;;61.70;29.90;;;;;;;-2.75;88.64;100120.02;106135;1277;22787;-85
2022/01/13 03:09:04;;;;;;;72.70;30.30;;;;;;;-2.72;88.66;100124.35;106112;1277;138344;-85
2022/01/13 03:11:34;;;;;;;68.40;29.80;;;;;;;-2.68;88.45;100128.88;106377;1277;22554;-86
2022/01/13 03:14:04;;;;;;;84.20;35.70;;;;;;;-2.66;88.53;100130.15;106273;1277;138260;-85
2022/01/13 03:16:30;;;;;;;84.90;35.40;;;;;;;-2.64;88.60;100123.84;106281;1278;22628;-86
2022/01/13 03:18:57;;;;;;;76.40;33.40;;;;;;;-2.61;88.66;100120.02;106126;1277;139478;-85
2022/01/13 03:21:23;;;;;;;77.80;32.90;;;;;;;-2.59;88.64;100122.52;106333;1277;22600;-85
2022/01/13 03:23:50;;;;;;;77.90;33.70;;;;;;;-2.57;88.66;100123.39;106322;1277;25265;-86
2022/01/13 03:26:17;;;;;;;89.30;36.10;;;;;;;-2.57;88.61;100119.14;106763;1277;138498;-87
2022/01/13 03:29:27;;;;;;;78.00;34.30;;;;;;;-2.56;88.49;100115.55;106137;1277;22575;-85
2022/01/13 03:31:33;;;;;;;77.30;32.30;;;;;;;-2.54;88.80;100100.63;106141;1277;138888;-85
2022/01/13 03:34:02;;;;;;;80.60;35.20;;;;;;;-2.52;88.63;100098.52;106077;1277;23407;-85
2022/01/13 03:36:33;;;;;;;79.20;34.00;;;;;;;-2.52;88.93;100095.59;106309;1277;22993;-86
2022/01/13 03:38:59;;;;;;;85.00;36.00;;;;;;;-2.50;88.85;100086.08;106191;1277;137821;-85
2022/01/13 03:41:26;;;;;;;83.20;34.50;;;;;;;-2.47;88.96;100082.48;106178;1277;22576;-85
2022/01/13 03:43:55;;;;;;;72.30;31.60;;;;;;;-2.44;88.78;100073.67;106314;1278;138838;-86
2022/01/13 03:46:21;;;;;;;69.10;30.10;;;;;;;-2.40;88.87;100079.43;106299;1277;22579;-85
2022/01/13 03:48:48;;;;;;;61.10;26.00;;;;;;;-2.38;88.94;100076.58;106207;1277;22654;-86
2022/01/13 03:51:14;;;;;;;71.10;31.20;;;;;;;-2.36;89.25;100082.28;106209;1277;137952;-86
2022/01/13 03:53:58;;;;;;;66.10;28.90;;;;;;;-2.33;89.34;100089.73;106499;1277;22550;-86
2022/01/13 03:57:03;;;;;;;55.70;25.20;;;;;;;-2.30;89.48;100099.25;106029;1278;139267;-87
2022/01/13 04:00:07;;;;;;;65.00;27.30;;;;;;;-2.24;89.39;100116.02;106136;1278;22537;-86
2022/01/13 04:02:40;;;;;;;80.30;30.30;;;;;;;-2.20;89.41;100116.09;106005;1277;137858;-86
2022/01/13 04:05:06;;;;;;;70.70;30.80;;;;;;;-2.18;89.84;100115.20;106469;1277;24337;-85
2022/01/13 04:07:32;;;;;;;71.70;31.80;;;;;;;-2.14;89.24;100116.11;106130;1277;139408;-85
2022/01/13 04:10:00;;;;;;;67.30;29.20;;;;;;;-2.10;89.33;100110.27;106390;1277;23911;-88
2022/01/13 04:12:41;;;;;;;69.50;29.40;;;;;;;-2.05;89.45;100110.79;106247;1277;22766;-87
2022/01/13 04:15:11;;;;;;;71.60;32.10;;;;;;;-2.03;89.27;100105.09;106092;1277;137895;-86
2022/01/13 04:17:38;;;;;;;84.40;34.40;;;;;;;-2.01;89.22;100102.31;106249;1278;23325;-87
2022/01/13 04:20:06;;;;;;;73.00;32.20;;;;;;;-2.01;89.10;100100.90;106537;1276;139248;-85
2022/01/13 04:22:32;;;;;;;69.20;30.90;;;;;;;-2.01;88.97;100097.10;106263;1277;22582;-86
2022/01/13 04:24:59;;;;;;;70.20;31.60;;;;;;;-1.99;89.12;100096.95;106170;1278;139463;-86
2022/01/13 04:27:30;;;;;;;62.60;26.60;;;;;;;-1.98;89.51;100088.28;106290;1277;25324;-85
2022/01/13 04:32:41;;;;;;;66.80;29.30;;;;;;;-1.97;89.48;100087.36;106187;1278;138746;-87
2022/01/13 04:35:09;;;;;;;65.50;28.50;;;;;;;-1.97;89.42;100082.16;106396;1277;22560;-87
2022/01/13 04:37:35;;;;;;;64.10;27.50;;;;;;;-1.93;89.34;100081.17;106242;1277;138706;-85
2022/01/13 04:40:02;;;;;;;63.80;28.90;;;;;;;-1.91;89.23;100083.50;106359;1277;23960;-87
2022/01/13 04:42:36;;;;;;;65.50;26.60;;;;;;;-1.90;89.57;100079.15;106312;1277;22664;-87
2022/01/13 04:45:04;;;;;;;68.50;28.60;;;;;;;-1.90;89.65;100073.67;106161;1277;138196;-85
2022/01/13 04:47:30;;;;;;;62.80;28.30;;;;;;;-1.89;89.59;100073.20;106115;1278;22568;-85
2022/01/13 04:49:56;;;;;;;68.00;28.40;;;;;;;-1.87;89.67;100070.21;106347;1277;138752;-85
2022/01/13 04:52:23;;;;;;;56.80;25.80;;;;;;;-1.84;89.62;100077.98;106238;1280;22551;-87
2022/01/13 04:54:49;;;;;;;63.40;29.00;;;;;;;-1.83;89.69;100082.14;106087;1278;23919;-87
2022/01/13 04:57:17;;;;;;;67.90;28.90;;;;;;;-1.82;89.76;100086.33;106186;1277;137653;-85
2022/01/13 04:59:45;;;;;;;72.40;30.50;;;;;;;-1.83;89.70;100094.20;106328;1278;25417;-87
2022/01/13 05:02:11;;;;;;;65.70;29.70;;;;;;;-1.83;89.63;100086.03;105990;1277;138911;-86
2022/01/13 05:04:37;;;;;;;69.20;29.80;;;;;;;-1.81;89.78;100077.55;106309;1277;22614;-86
2022/01/13 05:07:04;;;;;;;68.90;28.60;;;;;;;-1.80;89.75;100084.57;106265;1277;138810;-87
2022/01/13 05:09:30;;;;;;;75.40;32.80;;;;;;;-1.79;89.75;100076.14;106128;1278;22718;-85
2022/01/13 05:11:58;;;;;;;68.60;29.70;;;;;;;-1.79;89.94;100078.56;106332;1277;22578;-86
2022/01/13 05:14:26;;;;;;;62.90;28.10;;;;;;;-1.76;89.84;100075.91;106086;1277;138645;-89
2022/01/13 05:19:25;;;;;;;65.30;28.60;;;;;;;-1.73;90.26;100073.86;106047;1277;138267;-85
2022/01/13 05:24:26;;;;;;;62.70;27.60;;;;;;;-1.72;90.15;100073.95;106018;1278;22580;-85
2022/01/13 05:27:08;;;;;;;63.20;26.20;;;;;;;-1.69;90.31;100079.77;105754;1277;138787;-86
2022/01/13 05:29:34;;;;;;;62.10;26.10;;;;;;;-1.67;90.45;100089.59;105966;1277;23937;-85
2022/01/13 05:32:00;;;;;;;62.90;28.30;;;;;;;-1.65;90.50;100089.73;105930;1277;137963;-86
2022/01/13 05:34:27;;;;;;;70.60;29.70;;;;;;;-1.64;90.54;100083.42;105938;1277;22564;-85
2022/01/13 05:37:08;;;;;;;70.60;29.80;;;;;;;-1.60;90.61;100082.41;105775;1277;141188;-87
2022/01/13 05:39:35;;;;;;;73.20;29.20;;;;;;;-1.57;90.60;100077.13;106030;1278;22639;-86
2022/01/13 05:42:01;;;;;;;64.80;27.90;;;;;;;-1.55;90.71;100071.98;105926;1279;23916;-87
2022/01/13 05:44:27;;;;;;;58.90;25.40;;;;;;;-1.53;90.55;100066.64;105790;1277;138250;-86
2022/01/13 05:46:53;;;;;;;71.30;28.20;;;;;;;-1.52;90.58;100064.83;105894;1277;25261;-86
2022/01/13 05:49:19;;;;;;;62.60;26.60;;;;;;;-1.52;90.58;100062.46;105822;1277;139284;-86
2022/01/13 05:51:46;;;;;;;63.60;26.40;;;;;;;-1.49;90.52;100064.59;106017;1277;22715;-87
2022/01/13 05:54:12;;;;;;;55.40;26.20;;;;;;;-1.46;90.63;100064.88;105990;1277;22590;-87
2022/01/13 05:56:38;;;;;;;59.10;26.00;;;;;;;-1.45;90.61;100063.20;106005;1277;138605;-87
2022/01/13 05:59:04;;;;;;;62.60;25.50;;;;;;;-1.44;90.92;100063.65;106121;1277;22573;-89
2022/01/13 06:01:30;;;;;;;67.10;26.30;;;;;;;-1.44;90.90;100063.30;105800;1277;138006;-87
2022/01/13 06:03:57;;;;;;;66.40;28.80;;;;;;;-1.44;90.97;100065.57;105936;1278;23935;-86
2022/01/13 06:06:23;;;;;;;63.30;26.60;;;;;;;-1.42;90.61;100072.31;106094;1277;22560;-84
2022/01/13 06:08:49;;;;;;;62.70;27.10;;;;;;;-1.40;90.74;100067.57;105970;1277;138278;-85
2022/01/13 06:11:15;;;;;;;60.60;26.10;;;;;;;-1.39;90.98;100061.55;105974;1277;22604;-86
2022/01/13 06:13:56;;;;;;;50.00;21.00;;;;;;;-1.37;90.97;100056.41;105860;1277;138161;-87
2022/01/13 06:16:22;;;;;;;69.70;28.50;;;;;;;-1.36;90.89;100056.02;105970;1277;22579;-86
2022/01/13 06:18:48;;;;;;;56.10;25.10;;;;;;;-1.33;91.15;100051.67;105681;1278;24238;-86
2022/01/13 06:21:15;;;;;;;56.50;26.40;;;;;;;-1.30;91.28;100055.91;105838;1280;139018;-87
2022/01/13 06:23:41;;;;;;;61.30;25.30;;;;;;;-1.27;91.35;100056.16;105755;1280;22519;-87
2022/01/13 06:26:07;;;;;;;48.80;21.60;;;;;;;-1.24;91.53;100054.08;105780;1279;137920;-91
2022/01/13 06:28:33;;;;;;;53.90;22.40;;;;;;;-1.21;91.36;100056.71;106222;1277;22567;-89
2022/01/13 06:31:00;;;;;;;60.20;24.40;;;;;;;-1.20;91.37;100055.40;105896;1278;138349;-86
2022/01/13 06:33:26;;;;;;;47.70;22.10;;;;;;;-1.17;91.41;100052.66;106053;1277;22614;-88
2022/01/13 06:35:53;;;;;;;52.50;22.20;;;;;;;-1.14;91.45;100053.30;106409;1277;25569;-87
2022/01/13 06:38:23;;;;;;;57.70;24.60;;;;;;;-1.10;91.23;100054.77;106063;1277;137071;-90
2022/01/13 06:40:51;;;;;;;43.00;20.80;;;;;;;-1.07;91.36;100051.80;105932;1278;22493;-89
2022/01/13 06:43:17;;;;;;;54.50;24.00;;;;;;;-1.05;91.28;100055.53;105963;1277;138438;-88
2022/01/13 06:45:44;;;;;;;56.60;23.20;;;;;;;-1.03;91.24;100064.23;106477;1277;25369;-87
2022/01/13 06:48:10;;;;;;;51.90;22.10;;;;;;;-1.01;91.32;100066.05;106396;1277;23790;-86
2022/01/13 06:50:36;;;;;;;41.10;18.60;;;;;;;-0.99;91.18;100077.45;106661;1277;139120;-89
2022/01/13 06:53:03;;;;;;;49.70;22.30;;;;;;;-0.97;90.93;100075.66;106850;1277;22642;-87
2022/01/13 06:55:29;;;;;;;57.50;23.70;;;;;;;-0.94;90.87;100075.50;106200;1277;138385;-87
2022/01/13 06:57:55;;;;;;;54.30;24.50;;;;;;;-0.93;90.96;100070.02;106489;1277;22649;-89
2022/01/13 07:00:23;;;;;;;54.70;22.70;;;;;;;-0.90;90.79;100071.86;106224;1277;22549;-87
2022/01/13 07:02:51;;;;;;;54.90;22.10;;;;;;;-0.85;90.75;100073.45;106178;1277;138751;-88
2022/01/13 07:05:18;;;;;;;50.60;21.60;;;;;;;-0.81;90.73;100062.77;106548;1277;22587;-87
2022/01/13 07:07:45;;;;;;;60.00;25.70;;;;;;;-0.79;90.45;100056.68;106829;1277;138915;-89
2022/01/13 07:10:13;;;;;;;64.60;25.40;;;;;;;-0.78;90.23;100056.60;106369;1277;22578;-87
2022/01/13 07:12:42;;;;;;;56.20;25.40;;;;;;;-0.75;90.25;100050.69;106548;1277;23036;-87
2022/01/13 07:15:10;;;;;;;52.60;23.20;;;;;;;-0.71;90.17;100041.42;106356;1277;138843;-86
2022/01/13 07:17:37;;;;;;;47.70;21.70;;;;;;;-0.71;89.83;100034.05;106571;1277;23936;-87
2022/01/13 07:20:19;;;;;;;55.40;24.80;;;;;;;-0.65;89.75;100038.72;107232;1277;138062;-87
2022/01/13 07:22:45;;;;;;;61.70;25.50;;;;;;;-0.63;89.59;100038.52;106246;1278;25304;-86
2022/01/13 07:25:12;;;;;;;61.40;27.90;;;;;;;-0.60;89.83;100036.30;106057;1277;138561;-88
2022/01/13 07:27:40;;;;;;;52.80;24.80;;;;;;;-0.55;89.41;100038.00;106469;1278;22550;-88
2022/01/13 07:30:08;;;;;;;52.00;23.30;;;;;;;-0.51;89.44;100040.70;106366;1277;22583;-87
2022/01/13 07:32:34;;;;;;;48.50;22.20;;;;;;;-0.45;89.24;100035.23;106684;1277;139017;-87
2022/01/13 07:35:01;;;;;;;42.90;20.20;;;;;;;-0.42;89.16;100042.38;107027;1277;23397;-89
2022/01/13 07:37:28;;;;;;;43.20;21.10;;;;;;;-0.41;88.71;100042.45;106487;1277;138096;-87
2022/01/13 07:39:54;;;;;;;56.50;24.60;;;;;;;-0.39;88.66;100051.45;106569;1277;25363;-87
2022/01/13 07:42:23;;;;;;;48.30;24.40;;;;;;;-0.36;88.76;100056.15;106534;1278;25394;-87
2022/01/13 07:44:49;;;;;;;45.50;21.90;;;;;;;-0.32;88.55;100060.27;106214;1278;140306;-88
2022/01/13 07:47:16;;;;;;;44.50;21.80;;;;;;;-0.28;88.67;100059.21;106462;1277;25387;-88
2022/01/13 07:49:42;;;;;;;53.80;24.10;;;;;;;-0.25;88.63;100056.44;106616;1277;138059;-87
2022/01/13 07:52:09;;;;;;;47.00;22.10;;;;;;;-0.23;88.39;100042.85;106850;1277;26335;-88
2022/01/13 07:54:35;;;;;;;54.10;23.30;;;;;;;-0.20;88.32;100034.27;106419;1277;23361;-87
2022/01/13 07:57:02;;;;;;;46.10;21.70;;;;;;;-0.17;87.95;100020.46;106274;1277;139043;-88
2022/01/13 07:59:29;;;;;;;45.70;21.50;;;;;;;-0.13;87.95;100009.94;106497;1278;22557;-89
2022/01/13 08:01:57;;;;;;;43.10;20.20;;;;;;;-0.11;87.77;100003.09;106247;1277;138149;-87
2022/01/13 08:04:23;;;;;;;47.10;21.20;;;;;;;-0.10;87.76;99990.85;107109;1271;23056;-88
2022/01/13 08:06:50;;;;;;;43.80;19.40;;;;;;;-0.09;87.46;99981.65;106723;1278;23922;-88
2022/01/13 08:09:16;;;;;;;38.20;18.20;;;;;;;-0.08;87.40;99982.66;107082;1277;138212;-87
2022/01/13 08:11:44;;;;;;;43.30;19.90;;;;;;;-0.07;87.48;99981.65;108780;1279;22479;-86
2022/01/13 08:14:11;;;;;;;32.40;16.50;;;;;;;-0.05;87.31;99981.26;107706;1279;138182;-87
2022/01/13 08:16:41;;;;;;;37.40;17.40;;;;;;;-0.02;87.34;99979.93;106516;1279;22584;-86
2022/01/13 08:21:52;;;;;;;33.10;17.90;;;;;;;-0.01;86.96;99978.21;106598;1277;22731;-87
2022/01/13 08:24:19;;;;;;;34.30;16.50;;;;;;;-0.02;87.13;99985.27;106481;1279;22611;-86
2022/01/13 08:26:45;;;;;;;35.20;17.90;;;;;;;-0.00;86.90;99982.33;106855;1277;138359;-87
2022/01/13 08:29:11;;;;;;;34.30;17.40;;;;;;;0.02;86.74;99982.88;106349;1277;23179;-85
2022/01/13 08:31:38;;;;;;;35.20;15.90;;;;;;;0.03;86.98;99983.15;106332;1280;137947;-83
2022/01/13 08:34:04;;;;;;;29.80;15.60;;;;;;;0.03;86.74;99983.46;106591;1280;22599;-85
2022/01/13 08:36:30;;;;;;;32.30;16.10;;;;;;;0.03;86.73;99982.23;106505;1280;24323;-85
2022/01/13 08:38:57;;;;;;;31.50;16.30;;;;;;;0.03;86.50;99981.86;106562;1280;138288;-84
2022/01/13 08:41:23;;;;;;;35.10;15.70;;;;;;;0.06;86.69;99977.86;106477;1278;22668;-82
2022/01/13 08:43:52;;;;;;;33.10;15.40;;;;;;;0.11;86.49;99982.77;106556;1277;137709;-84
2022/01/13 08:46:18;;;;;;;32.00;15.70;;;;;;;0.16;86.39;99984.97;106851;1277;22577;-83
2022/01/13 08:48:45;;;;;;;36.60;15.50;;;;;;;0.19;86.41;99987.40;106560;1278;25478;-84
2022/01/13 08:51:11;;;;;;;34.90;15.60;;;;;;;0.23;86.30;99980.91;106454;1277;137747;-83
2022/01/13 08:53:38;;;;;;;28.50;14.50;;;;;;;0.32;86.20;99977.06;106441;1280;23645;-84
2022/01/13 08:56:05;;;;;;;25.30;11.80;;;;;;;0.40;85.91;99971.14;106738;1279;137972;-84
2022/01/13 08:58:31;;;;;;;27.40;12.00;;;;;;;0.46;85.56;99972.89;106496;1280;25283;-82
2022/01/13 09:00:58;;;;;;;26.70;13.20;;;;;;;0.52;85.63;99974.14;106984;1277;138289;-79
2022/01/13 09:03:24;;;;;;;29.40;14.10;;;;;;;0.58;85.42;99974.30;106969;1277;22589;-81
2022/01/13 09:05:51;;;;;;;24.90;13.40;;;;;;;0.65;85.23;99971.01;106563;1277;22712;-81
2022/01/13 09:08:17;;;;;;;27.00;13.70;;;;;;;0.72;84.92;99960.33;106712;1277;138955;-81
2022/01/13 09:10:44;;;;;;;25.20;13.00;;;;;;;0.78;84.60;99961.36;106869;1278;22597;-80
2022/01/13 09:13:14;;;;;;;24.70;12.10;;;;;;;0.83;84.49;99966.39;106470;1279;137694;-81
2022/01/13 09:15:46;;;;;;;27.80;12.60;;;;;;;0.88;84.14;99963.95;106185;1279;23397;-82
2022/01/13 09:18:29;;;;;;;28.80;13.00;;;;;;;0.92;83.91;99961.13;106375;1279;25350;-81
2022/01/13 09:20:56;;;;;;;24.20;11.40;;;;;;;0.94;83.70;99955.58;106355;1277;138582;-81
2022/01/13 09:23:22;;;;;;;27.90;12.40;;;;;;;0.96;83.47;99959.61;106994;1277;22571;-82
2022/01/13 09:25:48;;;;;;;23.40;11.60;;;;;;;1.02;83.38;99956.42;106610;1278;138029;-80
2022/01/13 09:28:15;;;;;;;28.90;13.70;;;;;;;1.04;83.25;99947.05;107288;1277;24285;-81
2022/01/13 09:30:41;;;;;;;27.10;13.00;;;;;;;1.11;83.36;99949.09;107296;1277;26319;-81
2022/01/13 09:33:08;;;;;;;28.70;13.90;;;;;;;1.18;83.32;99946.09;106926;1277;138287;-81
2022/01/13 09:35:35;;;;;;;33.90;15.00;;;;;;;1.25;83.04;99955.31;106785;1277;22589;-80
2022/01/13 09:38:02;;;;;;;34.70;15.90;;;;;;;1.32;82.61;99956.77;106674;1278;139076;-80
2022/01/13 09:40:29;;;;;;;35.80;16.60;;;;;;;1.39;82.38;99960.02;106038;1280;25605;-80
2022/01/13 09:42:56;;;;;;;29.30;14.20;;;;;;;1.45;82.06;99948.64;106076;1277;137952;-80
2022/01/13 09:45:22;;;;;;;31.10;15.70;;;;;;;1.52;81.73;99936.57;106076;1277;24334;-81
2022/01/13 09:47:51;;;;;;;30.30;14.00;;;;;;;1.56;81.10;99931.92;106081;1277;470291;-81
2022/01/13 09:50:20;;;;;;;36.80;16.60;;;;;;;1.57;80.54;99930.77;106536;1277;138161;-82
2022/01/13 09:52:47;;;;;;;34.30;16.00;;;;;;;1.56;80.11;99918.08;106286;1277;22542;-80
2022/01/13 09:55:15;;;;;;;32.80;15.90;;;;;;;1.60;79.90;99928.98;106398;1279;138106;-81
2022/01/13 09:57:51;;;;;;;34.90;15.70;;;;;;;1.65;79.74;99938.13;106874;1278;25257;-79
2022/01/13 10:00:21;;;;;;;31.20;14.50;;;;;;;1.73;79.61;99943.09;106074;1280;22569;-82
2022/01/13 10:02:48;;;;;;;28.50;14.00;;;;;;;1.77;79.05;99942.69;106741;1277;137647;-82
2022/01/13 10:05:19;;;;;;;30.50;15.00;;;;;;;1.79;78.53;99938.58;106666;1277;25387;-82
2022/01/13 10:07:47;;;;;;;31.30;14.40;;;;;;;1.80;77.96;99937.23;106303;1278;137766;-80
2022/01/13 10:10:16;;;;;;;36.80;16.30;;;;;;;1.81;77.66;99932.46;106362;1277;22576;-79
2022/01/13 10:12:44;;;;;;;;;;;;;;;1.82;77.83;99926.48;106415;1277;24240;-81
2022/01/13 10:17:49;;;;;;;34.10;16.30;;;;;;;1.95;78.01;99932.73;106636;1279;24242;-79
2022/01/13 10:20:19;;;;;;;31.90;15.10;;;;;;;2.05;77.73;99931.67;106520;1279;137901;-79
2022/01/13 10:22:46;;;;;;;34.60;16.00;;;;;;;2.10;77.16;99932.27;106512;1277;22645;-81
2022/01/13 10:25:32;;;;;;;34.90;17.20;;;;;;;2.09;76.96;99926.05;106392;1277;137816;-79
2022/01/13 10:28:22;;;;;;;32.70;16.00;;;;;;;2.08;76.61;99910.39;106744;1277;22576;-80
2022/01/13 10:30:52;;;;;;;34.60;16.70;;;;;;;2.08;76.30;99907.20;106418;1277;22565;-81
2022/01/13 10:33:23;;;;;;;36.70;18.00;;;;;;;2.08;76.56;99914.16;106782;1277;138966;-82
2022/01/13 10:36:09;;;;;;;39.30;16.10;;;;;;;2.12;76.72;99910.23;106487;1279;22856;-81
2022/01/13 10:38:56;;;;;;;35.60;16.60;;;;;;;2.18;76.90;99899.73;106235;1279;138215;-81
2022/01/13 10:42:11;;;;;;;28.50;12.70;;;;;;;2.25;76.38;99896.07;106437;1279;22618;-79
2022/01/13 10:44:26;;;;;;;33.40;15.20;;;;;;;2.31;76.18;99887.90;106540;1277;137610;-78
2022/01/13 10:47:11;;;;;;;38.60;17.70;;;;;;;2.33;75.95;99884.32;106674;1277;22548;-80
2022/01/13 10:49:41;;;;;;;32.10;14.80;;;;;;;2.37;76.00;99872.59;106158;1277;137795;-81
2022/01/13 10:52:27;;;;;;;35.30;14.40;;;;;;;2.41;75.97;99865.20;106339;1277;22717;-79
2022/01/13 10:55:11;;;;;;;30.20;13.60;;;;;;;2.42;75.36;99878.17;106677;1278;30599;-81
2022/01/13 10:57:43;;;;;;;39.60;14.80;;;;;;;2.40;75.23;99875.51;106358;1279;140144;-82
2022/01/13 11:00:25;;;;;;;46.10;15.20;;;;;;;2.38;75.29;99864.80;106829;1279;22601;-79
2022/01/13 11:03:00;;;;;;;29.70;14.20;;;;;;;2.37;75.55;99862.70;106282;1279;137591;-79
2022/01/13 11:05:29;;;;;;;31.90;15.00;;;;;;;2.37;75.67;99867.24;107225;1277;31776;-79
2022/01/13 11:08:01;;;;;;;27.20;13.80;;;;;;;2.36;75.71;99873.89;106574;1277;138229;-79
2022/01/13 11:10:28;;;;;;;25.30;13.20;;;;;;;2.34;75.54;99872.67;106559;1277;22665;-79
2022/01/13 11:12:59;;;;;;;32.60;12.50;;;;;;;2.34;75.55;99870.52;107194;1277;25374;-79
2022/01/13 11:15:27;;;;;;;27.00;12.90;;;;;;;2.32;75.35;99864.13;106405;1279;137426;-79
2022/01/13 11:17:55;;;;;;;24.40;13.60;;;;;;;2.29;75.32;99855.70;106450;1279;22570;-79
2022/01/13 11:20:22;;;;;;;29.60;13.30;;;;;;;2.23;75.39;99845.48;106537;1279;137428;-79
2022/01/13 11:22:51;;;;;;;26.40;12.20;;;;;;;2.19;75.64;99838.62;106383;1278;22652;-79
2022/01/13 11:25:23;;;;;;;27.80;13.20;;;;;;;2.16;76.07;99839.91;106351;1277;138278;-79
2022/01/13 11:27:50;;;;;;;22.50;11.60;;;;;;;2.15;76.29;99833.80;106701;1277;24310;-79
2022/01/13 11:30:19;;;;;;;22.40;11.60;;;;;;;2.16;76.68;99829.60;106293;1278;24390;-78
2022/01/13 11:33:00;;;;;;;25.50;12.40;;;;;;;2.15;76.81;99827.71;106382;1279;138114;-80
2022/01/13 11:35:29;;;;;;;27.20;12.00;;;;;;;2.13;77.02;99829.35;106589;1278;22588;-79
2022/01/13 11:38:02;;;;;;;30.70;12.50;;;;;;;2.11;77.18;99829.54;106355;1277;137812;-79
2022/01/13 11:40:28;;;;;;;29.40;13.30;;;;;;;2.09;77.47;99825.59;106393;1279;22629;-79
2022/01/13 11:42:59;;;;;;;22.60;11.90;;;;;;;2.12;77.82;99826.72;106114;1279;24338;-79
2022/01/13 11:45:27;;;;;;;24.10;11.70;;;;;;;2.14;77.73;99823.30;106167;1278;137562;-81
2022/01/13 11:48:30;;;;;;;23.50;12.20;;;;;;;2.15;77.89;99817.16;106770;1278;26538;-80